sensor_id;sensor_type;location;lat;lon;timestamp;temperature;humidity
48328;DHT22;34136;51.022;7.082;2024-02-26T00:00:44;8.10;99.90
48328;DHT22;34136;51.022;7.082;2024-02-26T00:03:30;8.00;99.90
48328;DHT22;34136;51.022;7.082;2024-02-26T00:06:22;8.10;99.90
48328;DHT22;34136;51.022;7.082;2024-02-26T00:09:17;8.00;99.90
48328;DHT22;34136;51.022;7.082;2024-02-26T00:12:06;8.10;99.90
48328;DHT22;34136;51.022;7.082;2024-02-26T00:14:52;8.00;99.90
48328;DHT22;34136;51.022;7.082;2024-02-26T00:17:41;8.00;99.90
48328;DHT22;34136;51.022;7.082;2024-02-26T00:20:27;8.00;99.90
48328;DHT22;34136;51.022;7.082;2024-02-26T00:23:16;8.00;99.90
48328;DHT22;34136;51.022;7.082;2024-02-26T00:26:05;8.00;99.90
48328;DHT22;34136;51.022;7.082;2024-02-26T00:28:51;7.90;99.90
48328;DHT22;34136;51.022;7.082;2024-02-26T00:31:45;7.90;99.90
48328;DHT22;34136;51.022;7.082;2024-02-26T00:34:31;7.90;99.90
48328;DHT22;34136;51.022;7.082;2024-02-26T00:37:22;7.80;99.90
48328;DHT22;34136;51.022;7.082;2024-02-26T00:40:13;7.80;99.90
48328;DHT22;34136;51.022;7.082;2024-02-26T00:43:08;7.80;99.90
48328;DHT22;34136;51.022;7.082;2024-02-26T00:45:56;7.70;99.90
48328;DHT22;34136;51.022;7.082;2024-02-26T00:48:42;7.80;99.90
48328;DHT22;34136;51.022;7.082;2024-02-26T00:51:34;7.80;99.90
48328;DHT22;34136;51.022;7.082;2024-02-26T00:54:25;7.80;99.90
48328;DHT22;34136;51.022;7.082;2024-02-26T00:57:11;7.80;99.90
48328;DHT22;34136;51.022;7.082;2024-02-26T00:59:57;7.70;99.90
48328;DHT22;34136;51.022;7.082;2024-02-26T01:02:49;7.70;99.90
48328;DHT22;34136;51.022;7.082;2024-02-26T01:05:35;7.70;99.90
48328;DHT22;34136;51.022;7.082;2024-02-26T01:08:31;7.70;99.90
48328;DHT22;34136;51.022;7.082;2024-02-26T01:11:17;7.70;99.90
48328;DHT22;34136;51.022;7.082;2024-02-26T01:14:08;7.60;99.90
48328;DHT22;34136;51.022;7.082;2024-02-26T01:17:07;7.60;99.90
48328;DHT22;34136;51.022;7.082;2024-02-26T01:20:03;7.60;99.90
48328;DHT22;34136;51.022;7.082;2024-02-26T01:22:49;7.60;99.90
48328;DHT22;34136;51.022;7.082;2024-02-26T01:25:38;7.50;99.90
48328;DHT22;34136;51.022;7.082;2024-02-26T01:28:55;7.40;99.90
48328;DHT22;34136;51.022;7.082;2024-02-26T01:31:40;7.40;99.90
48328;DHT22;34136;51.022;7.082;2024-02-26T01:34:33;7.30;99.90
48328;DHT22;34136;51.022;7.082;2024-02-26T01:37:19;7.30;99.90
48328;DHT22;34136;51.022;7.082;2024-02-26T01:40:06;7.20;99.90
48328;DHT22;34136;51.022;7.082;2024-02-26T01:42:53;7.20;99.90
48328;DHT22;34136;51.022;7.082;2024-02-26T01:45:39;7.10;99.90
48328;DHT22;34136;51.022;7.082;2024-02-26T01:48:32;7.10;99.90
48328;DHT22;34136;51.022;7.082;2024-02-26T01:51:18;7.10;99.90
48328;DHT22;34136;51.022;7.082;2024-02-26T01:54:07;7.00;99.90
48328;DHT22;34136;51.022;7.082;2024-02-26T01:56:53;7.00;99.90
48328;DHT22;34136;51.022;7.082;2024-02-26T01:59:40;7.00;99.90
48328;DHT22;34136;51.022;7.082;2024-02-26T02:02:27;7.00;99.90
48328;DHT22;34136;51.022;7.082;2024-02-26T02:05:14;7.00;99.90
48328;DHT22;34136;51.022;7.082;2024-02-26T02:08:04;6.90;99.90
48328;DHT22;34136;51.022;7.082;2024-02-26T02:10:50;6.90;99.90
48328;DHT22;34136;51.022;7.082;2024-02-26T02:13:37;6.90;99.90
48328;DHT22;34136;51.022;7.082;2024-02-26T02:16:23;6.90;99.90
48328;DHT22;34136;51.022;7.082;2024-02-26T02:19:09;6.90;99.90
48328;DHT22;34136;51.022;7.082;2024-02-26T02:21:55;6.90;99.90
48328;DHT22;34136;51.022;7.082;2024-02-26T02:24:41;6.90;99.90
48328;DHT22;34136;51.022;7.082;2024-02-26T02:27:27;6.90;99.90
48328;DHT22;34136;51.022;7.082;2024-02-26T02:30:14;6.90;99.90
48328;DHT22;34136;51.022;7.082;2024-02-26T02:33:00;6.90;99.90
48328;DHT22;34136;51.022;7.082;2024-02-26T02:35:46;6.90;99.90
48328;DHT22;34136;51.022;7.082;2024-02-26T02:38:32;6.90;99.90
48328;DHT22;34136;51.022;7.082;2024-02-26T02:41:18;6.90;99.90
48328;DHT22;34136;51.022;7.082;2024-02-26T02:44:04;6.80;99.90
48328;DHT22;34136;51.022;7.082;2024-02-26T02:46:51;6.80;99.90
48328;DHT22;34136;51.022;7.082;2024-02-26T02:49:37;6.80;99.90
48328;DHT22;34136;51.022;7.082;2024-02-26T02:52:23;6.80;99.90
48328;DHT22;34136;51.022;7.082;2024-02-26T02:55:09;6.80;99.90
48328;DHT22;34136;51.022;7.082;2024-02-26T02:57:55;6.80;99.90
48328;DHT22;34136;51.022;7.082;2024-02-26T03:00:41;6.80;99.90
48328;DHT22;34136;51.022;7.082;2024-02-26T03:03:27;6.80;1.00
48328;DHT22;34136;51.022;7.082;2024-02-26T03:06:13;6.80;1.00
48328;DHT22;34136;51.022;7.082;2024-02-26T03:08:59;6.80;1.40
48328;DHT22;34136;51.022;7.082;2024-02-26T03:11:45;6.80;1.00
48328;DHT22;34136;51.022;7.082;2024-02-26T03:14:31;6.80;1.00
48328;DHT22;34136;51.022;7.082;2024-02-26T03:17:26;6.80;1.00
48328;DHT22;34136;51.022;7.082;2024-02-26T03:20:12;6.90;1.00
48328;DHT22;34136;51.022;7.082;2024-02-26T03:22:58;6.90;1.40
48328;DHT22;34136;51.022;7.082;2024-02-26T03:25:44;6.80;1.00
48328;DHT22;34136;51.022;7.082;2024-02-26T03:28:30;6.90;1.00
48328;DHT22;34136;51.022;7.082;2024-02-26T03:31:16;6.80;1.00
48328;DHT22;34136;51.022;7.082;2024-02-26T03:34:02;6.80;1.00
48328;DHT22;34136;51.022;7.082;2024-02-26T03:36:48;6.80;1.00
48328;DHT22;34136;51.022;7.082;2024-02-26T03:39:34;6.70;1.00
48328;DHT22;34136;51.022;7.082;2024-02-26T03:42:27;6.80;1.00
48328;DHT22;34136;51.022;7.082;2024-02-26T03:45:13;6.80;1.00
48328;DHT22;34136;51.022;7.082;2024-02-26T03:48:02;6.80;1.00
48328;DHT22;34136;51.022;7.082;2024-02-26T03:50:48;6.70;1.00
48328;DHT22;34136;51.022;7.082;2024-02-26T03:53:34;6.70;1.00
48328;DHT22;34136;51.022;7.082;2024-02-26T03:56:20;6.70;1.00
48328;DHT22;34136;51.022;7.082;2024-02-26T03:59:07;6.70;1.00
48328;DHT22;34136;51.022;7.082;2024-02-26T04:01:53;6.70;1.00
48328;DHT22;34136;51.022;7.082;2024-02-26T04:04:39;6.70;1.00
48328;DHT22;34136;51.022;7.082;2024-02-26T04:07:24;6.70;1.00
48328;DHT22;34136;51.022;7.082;2024-02-26T04:10:11;6.70;1.00
48328;DHT22;34136;51.022;7.082;2024-02-26T04:12:57;6.70;1.00
48328;DHT22;34136;51.022;7.082;2024-02-26T04:15:43;6.70;1.00
48328;DHT22;34136;51.022;7.082;2024-02-26T04:18:29;6.80;1.00
48328;DHT22;34136;51.022;7.082;2024-02-26T04:21:15;6.80;1.00
48328;DHT22;34136;51.022;7.082;2024-02-26T04:24:01;6.70;1.00
48328;DHT22;34136;51.022;7.082;2024-02-26T04:26:47;6.70;1.00
48328;DHT22;34136;51.022;7.082;2024-02-26T04:29:37;6.80;1.00
48328;DHT22;34136;51.022;7.082;2024-02-26T04:32:24;6.80;1.00
48328;DHT22;34136;51.022;7.082;2024-02-26T04:35:10;6.80;1.00
48328;DHT22;34136;51.022;7.082;2024-02-26T04:37:56;6.80;1.00
48328;DHT22;34136;51.022;7.082;2024-02-26T04:40:42;6.80;1.00
48328;DHT22;34136;51.022;7.082;2024-02-26T04:43:28;6.80;1.00
48328;DHT22;34136;51.022;7.082;2024-02-26T04:46:14;6.90;1.00
48328;DHT22;34136;51.022;7.082;2024-02-26T04:49:00;6.90;1.00
48328;DHT22;34136;51.022;7.082;2024-02-26T04:51:45;6.80;1.00
48328;DHT22;34136;51.022;7.082;2024-02-26T04:54:31;6.80;1.00
48328;DHT22;34136;51.022;7.082;2024-02-26T04:57:18;6.80;1.00
48328;DHT22;34136;51.022;7.082;2024-02-26T05:00:04;6.90;1.00
48328;DHT22;34136;51.022;7.082;2024-02-26T05:02:50;6.90;1.00
48328;DHT22;34136;51.022;7.082;2024-02-26T05:05:37;7.00;1.00
48328;DHT22;34136;51.022;7.082;2024-02-26T05:08:22;6.90;1.00
48328;DHT22;34136;51.022;7.082;2024-02-26T05:11:08;6.90;1.00
48328;DHT22;34136;51.022;7.082;2024-02-26T05:13:54;6.80;1.00
48328;DHT22;34136;51.022;7.082;2024-02-26T05:16:41;6.80;1.00
48328;DHT22;34136;51.022;7.082;2024-02-26T05:19:27;6.70;1.00
48328;DHT22;34136;51.022;7.082;2024-02-26T05:22:13;6.70;1.00
48328;DHT22;34136;51.022;7.082;2024-02-26T05:24:59;6.70;1.00
48328;DHT22;34136;51.022;7.082;2024-02-26T05:27:45;6.70;1.00
48328;DHT22;34136;51.022;7.082;2024-02-26T05:30:31;6.70;1.00
48328;DHT22;34136;51.022;7.082;2024-02-26T05:33:17;6.70;1.00
48328;DHT22;34136;51.022;7.082;2024-02-26T05:36:03;6.70;1.00
48328;DHT22;34136;51.022;7.082;2024-02-26T05:38:49;6.70;1.00
48328;DHT22;34136;51.022;7.082;2024-02-26T05:41:35;6.70;1.00
48328;DHT22;34136;51.022;7.082;2024-02-26T05:44:22;6.70;1.00
48328;DHT22;34136;51.022;7.082;2024-02-26T05:47:08;6.70;1.00
48328;DHT22;34136;51.022;7.082;2024-02-26T05:49:54;6.70;1.00
48328;DHT22;34136;51.022;7.082;2024-02-26T05:52:40;6.70;1.00
48328;DHT22;34136;51.022;7.082;2024-02-26T05:55:26;6.70;1.00
48328;DHT22;34136;51.022;7.082;2024-02-26T05:58:12;6.80;1.00
48328;DHT22;34136;51.022;7.082;2024-02-26T06:00:58;6.70;1.00
48328;DHT22;34136;51.022;7.082;2024-02-26T06:03:44;6.70;1.00
48328;DHT22;34136;51.022;7.082;2024-02-26T06:06:30;6.80;1.00
48328;DHT22;34136;51.022;7.082;2024-02-26T06:09:16;6.70;1.00
48328;DHT22;34136;51.022;7.082;2024-02-26T06:15:37;6.80;1.00
48328;DHT22;34136;51.022;7.082;2024-02-26T06:18:23;6.70;1.00
48328;DHT22;34136;51.022;7.082;2024-02-26T06:21:10;6.70;1.00
48328;DHT22;34136;51.022;7.082;2024-02-26T06:23:56;6.70;1.00
48328;DHT22;34136;51.022;7.082;2024-02-26T06:27:07;6.70;1.00
48328;DHT22;34136;51.022;7.082;2024-02-26T06:29:53;6.70;1.00
48328;DHT22;34136;51.022;7.082;2024-02-26T06:32:39;6.60;1.00
48328;DHT22;34136;51.022;7.082;2024-02-26T06:35:26;6.60;1.00
48328;DHT22;34136;51.022;7.082;2024-02-26T06:38:12;6.60;1.00
48328;DHT22;34136;51.022;7.082;2024-02-26T06:40:58;6.60;1.00
48328;DHT22;34136;51.022;7.082;2024-02-26T06:43:44;6.50;1.00
48328;DHT22;34136;51.022;7.082;2024-02-26T06:46:31;6.60;1.00
48328;DHT22;34136;51.022;7.082;2024-02-26T06:52:47;6.70;1.00
48328;DHT22;34136;51.022;7.082;2024-02-26T06:55:33;6.60;1.00
48328;DHT22;34136;51.022;7.082;2024-02-26T06:58:19;6.60;1.00
48328;DHT22;34136;51.022;7.082;2024-02-26T07:01:11;6.60;1.00
48328;DHT22;34136;51.022;7.082;2024-02-26T07:03:58;6.60;1.00
48328;DHT22;34136;51.022;7.082;2024-02-26T07:06:44;6.60;1.00
48328;DHT22;34136;51.022;7.082;2024-02-26T07:09:30;6.60;1.00
48328;DHT22;34136;51.022;7.082;2024-02-26T07:12:16;6.60;1.00
48328;DHT22;34136;51.022;7.082;2024-02-26T07:15:02;6.60;1.00
48328;DHT22;34136;51.022;7.082;2024-02-26T07:17:52;6.50;1.00
48328;DHT22;34136;51.022;7.082;2024-02-26T07:20:38;6.50;1.00
48328;DHT22;34136;51.022;7.082;2024-02-26T07:23:24;6.50;1.00
48328;DHT22;34136;51.022;7.082;2024-02-26T07:26:10;6.60;1.00
48328;DHT22;34136;51.022;7.082;2024-02-26T07:28:57;6.60;1.00
48328;DHT22;34136;51.022;7.082;2024-02-26T07:31:46;6.60;1.00
48328;DHT22;34136;51.022;7.082;2024-02-26T07:34:32;6.60;1.00
48328;DHT22;34136;51.022;7.082;2024-02-26T07:37:18;6.50;1.00
48328;DHT22;34136;51.022;7.082;2024-02-26T07:40:04;6.50;1.00
48328;DHT22;34136;51.022;7.082;2024-02-26T07:42:51;6.50;1.00
48328;DHT22;34136;51.022;7.082;2024-02-26T07:45:37;6.40;1.00
48328;DHT22;34136;51.022;7.082;2024-02-26T07:48:23;6.40;1.00
48328;DHT22;34136;51.022;7.082;2024-02-26T07:51:11;6.50;1.00
48328;DHT22;34136;51.022;7.082;2024-02-26T07:53:57;6.50;1.00
48328;DHT22;34136;51.022;7.082;2024-02-26T07:56:43;6.50;1.00
48328;DHT22;34136;51.022;7.082;2024-02-26T07:59:30;6.50;1.00
48328;DHT22;34136;51.022;7.082;2024-02-26T08:02:16;6.50;1.00
48328;DHT22;34136;51.022;7.082;2024-02-26T08:05:14;6.50;1.00
48328;DHT22;34136;51.022;7.082;2024-02-26T08:08:00;6.50;1.00
48328;DHT22;34136;51.022;7.082;2024-02-26T08:10:46;6.50;1.00
48328;DHT22;34136;51.022;7.082;2024-02-26T08:13:32;6.50;1.00
48328;DHT22;34136;51.022;7.082;2024-02-26T08:16:18;6.50;1.00
48328;DHT22;34136;51.022;7.082;2024-02-26T08:19:05;6.50;1.00
48328;DHT22;34136;51.022;7.082;2024-02-26T08:21:51;6.60;1.00
48328;DHT22;34136;51.022;7.082;2024-02-26T08:24:37;6.60;1.00
48328;DHT22;34136;51.022;7.082;2024-02-26T08:27:23;6.60;1.00
48328;DHT22;34136;51.022;7.082;2024-02-26T08:30:09;6.60;1.00
48328;DHT22;34136;51.022;7.082;2024-02-26T08:32:55;6.60;1.00
48328;DHT22;34136;51.022;7.082;2024-02-26T08:35:41;6.50;1.00
48328;DHT22;34136;51.022;7.082;2024-02-26T08:38:27;6.50;1.00
48328;DHT22;34136;51.022;7.082;2024-02-26T08:41:13;6.50;1.00
48328;DHT22;34136;51.022;7.082;2024-02-26T08:43:59;6.60;1.00
48328;DHT22;34136;51.022;7.082;2024-02-26T08:46:45;6.60;1.00
48328;DHT22;34136;51.022;7.082;2024-02-26T08:49:31;6.60;1.00
48328;DHT22;34136;51.022;7.082;2024-02-26T08:52:17;6.60;1.00
48328;DHT22;34136;51.022;7.082;2024-02-26T08:55:03;6.60;1.00
48328;DHT22;34136;51.022;7.082;2024-02-26T08:57:49;6.60;1.00
48328;DHT22;34136;51.022;7.082;2024-02-26T09:00:35;6.60;1.00
48328;DHT22;34136;51.022;7.082;2024-02-26T09:03:22;6.50;1.00
48328;DHT22;34136;51.022;7.082;2024-02-26T09:06:08;6.50;1.00
48328;DHT22;34136;51.022;7.082;2024-02-26T09:08:54;6.50;1.00
48328;DHT22;34136;51.022;7.082;2024-02-26T09:11:41;6.60;1.00
48328;DHT22;34136;51.022;7.082;2024-02-26T09:14:27;6.50;1.00
48328;DHT22;34136;51.022;7.082;2024-02-26T09:17:12;6.60;1.00
48328;DHT22;34136;51.022;7.082;2024-02-26T09:19:59;6.60;1.00
48328;DHT22;34136;51.022;7.082;2024-02-26T09:22:45;6.60;1.00
48328;DHT22;34136;51.022;7.082;2024-02-26T09:25:31;6.60;1.00
48328;DHT22;34136;51.022;7.082;2024-02-26T09:28:21;6.60;1.00
48328;DHT22;34136;51.022;7.082;2024-02-26T09:31:07;6.60;1.00
48328;DHT22;34136;51.022;7.082;2024-02-26T09:33:53;6.60;1.00
48328;DHT22;34136;51.022;7.082;2024-02-26T09:36:39;6.60;1.00
48328;DHT22;34136;51.022;7.082;2024-02-26T09:39:25;6.60;1.00
48328;DHT22;34136;51.022;7.082;2024-02-26T09:42:11;6.50;1.00
48328;DHT22;34136;51.022;7.082;2024-02-26T09:44:59;6.60;1.00
48328;DHT22;34136;51.022;7.082;2024-02-26T09:47:45;6.60;1.00
48328;DHT22;34136;51.022;7.082;2024-02-26T09:50:33;6.60;1.00
48328;DHT22;34136;51.022;7.082;2024-02-26T09:53:19;6.60;1.00
48328;DHT22;34136;51.022;7.082;2024-02-26T09:56:07;6.70;1.00
48328;DHT22;34136;51.022;7.082;2024-02-26T09:58:54;6.70;1.00
48328;DHT22;34136;51.022;7.082;2024-02-26T10:01:41;6.60;1.00
48328;DHT22;34136;51.022;7.082;2024-02-26T10:04:28;6.70;1.00
48328;DHT22;34136;51.022;7.082;2024-02-26T10:07:14;6.70;1.00
48328;DHT22;34136;51.022;7.082;2024-02-26T10:10:01;6.60;1.00
48328;DHT22;34136;51.022;7.082;2024-02-26T10:12:47;6.60;1.00
48328;DHT22;34136;51.022;7.082;2024-02-26T10:15:33;6.60;1.00
48328;DHT22;34136;51.022;7.082;2024-02-26T10:18:19;6.70;1.00
48328;DHT22;34136;51.022;7.082;2024-02-26T10:21:05;6.70;1.00
48328;DHT22;34136;51.022;7.082;2024-02-26T10:23:51;6.70;1.00
48328;DHT22;34136;51.022;7.082;2024-02-26T10:26:37;6.70;1.00
48328;DHT22;34136;51.022;7.082;2024-02-26T10:29:24;6.70;1.00
48328;DHT22;34136;51.022;7.082;2024-02-26T10:32:10;6.80;1.00
48328;DHT22;34136;51.022;7.082;2024-02-26T10:34:57;6.80;1.00
48328;DHT22;34136;51.022;7.082;2024-02-26T10:37:43;6.80;1.00
48328;DHT22;34136;51.022;7.082;2024-02-26T10:40:29;6.90;1.00
48328;DHT22;34136;51.022;7.082;2024-02-26T10:43:15;6.80;1.00
48328;DHT22;34136;51.022;7.082;2024-02-26T10:46:02;6.80;1.00
48328;DHT22;34136;51.022;7.082;2024-02-26T10:48:52;6.90;1.00
48328;DHT22;34136;51.022;7.082;2024-02-26T10:51:38;7.00;1.00
48328;DHT22;34136;51.022;7.082;2024-02-26T10:54:26;7.00;1.00
48328;DHT22;34136;51.022;7.082;2024-02-26T10:57:12;7.00;1.00
48328;DHT22;34136;51.022;7.082;2024-02-26T10:59:59;7.10;1.00
48328;DHT22;34136;51.022;7.082;2024-02-26T11:02:45;7.10;1.00
48328;DHT22;34136;51.022;7.082;2024-02-26T11:05:31;7.10;1.00
48328;DHT22;34136;51.022;7.082;2024-02-26T11:08:19;7.20;1.00
48328;DHT22;34136;51.022;7.082;2024-02-26T11:11:05;7.10;1.00
48328;DHT22;34136;51.022;7.082;2024-02-26T11:13:51;7.20;1.00
48328;DHT22;34136;51.022;7.082;2024-02-26T11:16:45;7.20;1.00
48328;DHT22;34136;51.022;7.082;2024-02-26T11:19:31;7.20;1.00
48328;DHT22;34136;51.022;7.082;2024-02-26T11:22:19;7.30;1.00
48328;DHT22;34136;51.022;7.082;2024-02-26T11:25:05;7.40;1.00
48328;DHT22;34136;51.022;7.082;2024-02-26T11:27:54;7.40;1.00
48328;DHT22;34136;51.022;7.082;2024-02-26T11:30:42;7.40;1.00
48328;DHT22;34136;51.022;7.082;2024-02-26T11:33:29;7.40;1.00
48328;DHT22;34136;51.022;7.082;2024-02-26T11:36:15;7.40;1.00
48328;DHT22;34136;51.022;7.082;2024-02-26T11:39:03;7.50;1.00
48328;DHT22;34136;51.022;7.082;2024-02-26T11:41:50;7.50;1.00
48328;DHT22;34136;51.022;7.082;2024-02-26T11:44:36;7.60;1.00
48328;DHT22;34136;51.022;7.082;2024-02-26T11:47:22;7.50;1.00
48328;DHT22;34136;51.022;7.082;2024-02-26T11:53:20;7.60;1.00
48328;DHT22;34136;51.022;7.082;2024-02-26T11:56:23;7.50;1.00
48328;DHT22;34136;51.022;7.082;2024-02-26T11:59:09;7.60;1.00
48328;DHT22;34136;51.022;7.082;2024-02-26T12:01:55;7.60;1.00
48328;DHT22;34136;51.022;7.082;2024-02-26T12:04:42;7.70;1.00
48328;DHT22;34136;51.022;7.082;2024-02-26T12:07:29;7.70;1.00
48328;DHT22;34136;51.022;7.082;2024-02-26T12:13:29;7.80;1.00
48328;DHT22;34136;51.022;7.082;2024-02-26T12:16:34;7.90;1.00
48328;DHT22;34136;51.022;7.082;2024-02-26T12:19:20;8.00;1.00
48328;DHT22;34136;51.022;7.082;2024-02-26T12:22:07;8.10;1.00
48328;DHT22;34136;51.022;7.082;2024-02-26T12:25:00;8.20;1.00
48328;DHT22;34136;51.022;7.082;2024-02-26T12:27:46;8.20;1.00
48328;DHT22;34136;51.022;7.082;2024-02-26T12:30:32;8.30;1.00
48328;DHT22;34136;51.022;7.082;2024-02-26T12:33:20;8.40;1.00
48328;DHT22;34136;51.022;7.082;2024-02-26T12:36:31;8.30;1.00
48328;DHT22;34136;51.022;7.082;2024-02-26T12:39:17;8.40;1.00
48328;DHT22;34136;51.022;7.082;2024-02-26T12:42:09;8.40;1.00
48328;DHT22;34136;51.022;7.082;2024-02-26T15:53:22;9.10;1.00
48328;DHT22;34136;51.022;7.082;2024-02-26T15:56:08;9.20;1.00
48328;DHT22;34136;51.022;7.082;2024-02-26T15:58:57;9.20;1.00
48328;DHT22;34136;51.022;7.082;2024-02-26T16:01:43;9.20;1.00
48328;DHT22;34136;51.022;7.082;2024-02-26T16:04:30;9.20;1.00
48328;DHT22;34136;51.022;7.082;2024-02-26T16:08:03;9.10;1.00
48328;DHT22;34136;51.022;7.082;2024-02-26T16:10:51;9.20;1.00
48328;DHT22;34136;51.022;7.082;2024-02-26T16:13:37;9.00;1.00
48328;DHT22;34136;51.022;7.082;2024-02-26T16:16:26;9.00;1.00
48328;DHT22;34136;51.022;7.082;2024-02-26T16:19:24;8.90;1.00
48328;DHT22;34136;51.022;7.082;2024-02-26T16:22:11;8.90;1.00
48328;DHT22;34136;51.022;7.082;2024-02-26T16:25:03;8.80;1.00
48328;DHT22;34136;51.022;7.082;2024-02-26T16:28:14;8.80;1.00
48328;DHT22;34136;51.022;7.082;2024-02-26T16:31:26;8.80;1.00
48328;DHT22;34136;51.022;7.082;2024-02-26T16:34:12;8.80;1.00
48328;DHT22;34136;51.022;7.082;2024-02-26T16:36:58;8.70;1.00
48328;DHT22;34136;51.022;7.082;2024-02-26T16:39:44;8.80;1.00
48328;DHT22;34136;51.022;7.082;2024-02-26T16:42:33;8.80;1.00
48328;DHT22;34136;51.022;7.082;2024-02-26T16:45:24;8.80;1.00
48328;DHT22;34136;51.022;7.082;2024-02-26T16:48:15;8.70;1.00
48328;DHT22;34136;51.022;7.082;2024-02-26T16:51:10;8.70;1.00
48328;DHT22;34136;51.022;7.082;2024-02-26T16:54:12;8.70;1.00
48328;DHT22;34136;51.022;7.082;2024-02-26T16:56:58;8.70;1.00
48328;DHT22;34136;51.022;7.082;2024-02-26T16:59:44;8.70;1.00
48328;DHT22;34136;51.022;7.082;2024-02-26T17:02:29;8.70;1.00
48328;DHT22;34136;51.022;7.082;2024-02-26T17:05:15;8.70;1.00
48328;DHT22;34136;51.022;7.082;2024-02-26T17:08:01;8.60;1.00
48328;DHT22;34136;51.022;7.082;2024-02-26T17:11:06;8.60;1.00
48328;DHT22;34136;51.022;7.082;2024-02-26T17:13:52;8.60;1.00
48328;DHT22;34136;51.022;7.082;2024-02-26T17:16:38;8.60;1.00
48328;DHT22;34136;51.022;7.082;2024-02-26T17:19:25;8.60;1.00
48328;DHT22;34136;51.022;7.082;2024-02-26T17:22:16;8.50;1.00
48328;DHT22;34136;51.022;7.082;2024-02-26T17:25:02;8.50;1.40
48328;DHT22;34136;51.022;7.082;2024-02-26T17:27:54;8.50;1.40
48328;DHT22;34136;51.022;7.082;2024-02-26T17:30:46;8.50;1.40
48328;DHT22;34136;51.022;7.082;2024-02-26T17:33:32;8.40;99.90
48328;DHT22;34136;51.022;7.082;2024-02-26T17:36:20;8.40;99.90
48328;DHT22;34136;51.022;7.082;2024-02-26T17:39:06;8.40;99.90
48328;DHT22;34136;51.022;7.082;2024-02-26T17:41:53;8.40;99.90
48328;DHT22;34136;51.022;7.082;2024-02-26T17:44:47;8.30;99.90
48328;DHT22;34136;51.022;7.082;2024-02-26T17:48:14;8.30;99.90
48328;DHT22;34136;51.022;7.082;2024-02-26T17:51:00;8.30;99.90
48328;DHT22;34136;51.022;7.082;2024-02-26T17:53:46;8.30;99.90
48328;DHT22;34136;51.022;7.082;2024-02-26T17:56:34;8.20;99.90
48328;DHT22;34136;51.022;7.082;2024-02-26T17:59:20;8.20;99.90
48328;DHT22;34136;51.022;7.082;2024-02-26T18:02:22;8.20;99.90
48328;DHT22;34136;51.022;7.082;2024-02-26T20:37:07;7.60;99.90
48328;DHT22;34136;51.022;7.082;2024-02-26T20:40:26;7.70;99.90
48328;DHT22;34136;51.022;7.082;2024-02-26T20:43:12;7.70;99.90
48328;DHT22;34136;51.022;7.082;2024-02-26T20:45:58;7.70;99.90
48328;DHT22;34136;51.022;7.082;2024-02-26T20:48:45;7.60;99.90
48328;DHT22;34136;51.022;7.082;2024-02-26T20:51:30;7.60;99.90
48328;DHT22;34136;51.022;7.082;2024-02-26T20:54:17;7.60;99.90
48328;DHT22;34136;51.022;7.082;2024-02-26T20:57:04;7.60;99.90
48328;DHT22;34136;51.022;7.082;2024-02-26T20:59:54;7.60;99.90
48328;DHT22;34136;51.022;7.082;2024-02-26T21:02:42;7.60;99.90
48328;DHT22;34136;51.022;7.082;2024-02-26T21:05:31;7.60;99.90
48328;DHT22;34136;51.022;7.082;2024-02-26T21:08:17;7.60;99.90
48328;DHT22;34136;51.022;7.082;2024-02-26T21:11:03;7.60;99.90
48328;DHT22;34136;51.022;7.082;2024-02-26T21:13:53;7.60;99.90
48328;DHT22;34136;51.022;7.082;2024-02-26T21:16:42;7.60;99.90
48328;DHT22;34136;51.022;7.082;2024-02-26T21:19:28;7.60;99.90
48328;DHT22;34136;51.022;7.082;2024-02-26T21:22:15;7.60;99.90
48328;DHT22;34136;51.022;7.082;2024-02-26T21:25:01;7.60;99.90
48328;DHT22;34136;51.022;7.082;2024-02-26T21:27:47;7.60;99.90
48328;DHT22;34136;51.022;7.082;2024-02-26T21:30:33;7.60;99.90
48328;DHT22;34136;51.022;7.082;2024-02-26T21:33:19;7.70;99.90
48328;DHT22;34136;51.022;7.082;2024-02-26T21:36:06;7.60;99.90
48328;DHT22;34136;51.022;7.082;2024-02-26T21:38:52;7.60;99.90
48328;DHT22;34136;51.022;7.082;2024-02-26T21:41:38;7.60;99.90
48328;DHT22;34136;51.022;7.082;2024-02-26T21:44:32;7.60;99.90
48328;DHT22;34136;51.022;7.082;2024-02-26T21:47:19;7.60;99.90
48328;DHT22;34136;51.022;7.082;2024-02-26T21:50:05;7.60;99.90
48328;DHT22;34136;51.022;7.082;2024-02-26T21:52:51;7.60;99.90
48328;DHT22;34136;51.022;7.082;2024-02-26T21:55:37;7.70;99.90
48328;DHT22;34136;51.022;7.082;2024-02-26T21:58:24;7.60;99.90
48328;DHT22;34136;51.022;7.082;2024-02-26T22:01:09;7.60;99.90
48328;DHT22;34136;51.022;7.082;2024-02-26T22:03:56;7.70;99.90
48328;DHT22;34136;51.022;7.082;2024-02-26T22:06:42;7.70;99.90
48328;DHT22;34136;51.022;7.082;2024-02-26T22:09:34;7.60;99.90
48328;DHT22;34136;51.022;7.082;2024-02-26T22:12:20;7.70;99.90
48328;DHT22;34136;51.022;7.082;2024-02-26T22:15:12;7.70;99.90
48328;DHT22;34136;51.022;7.082;2024-02-26T22:17:58;7.70;99.90
48328;DHT22;34136;51.022;7.082;2024-02-26T22:20:44;7.70;99.90
48328;DHT22;34136;51.022;7.082;2024-02-26T22:23:33;7.70;99.90
48328;DHT22;34136;51.022;7.082;2024-02-26T22:26:19;7.70;99.90
48328;DHT22;34136;51.022;7.082;2024-02-26T22:29:05;7.70;99.90
48328;DHT22;34136;51.022;7.082;2024-02-26T22:31:51;7.80;99.90
48328;DHT22;34136;51.022;7.082;2024-02-26T22:34:38;7.70;99.90
48328;DHT22;34136;51.022;7.082;2024-02-26T22:37:26;7.70;99.90
48328;DHT22;34136;51.022;7.082;2024-02-26T22:40:12;7.70;99.90
48328;DHT22;34136;51.022;7.082;2024-02-26T22:42:59;7.70;99.90
48328;DHT22;34136;51.022;7.082;2024-02-26T22:45:45;7.70;99.90
48328;DHT22;34136;51.022;7.082;2024-02-26T22:48:31;7.70;99.90
48328;DHT22;34136;51.022;7.082;2024-02-26T22:51:17;7.70;99.90
48328;DHT22;34136;51.022;7.082;2024-02-26T22:54:03;7.70;99.90
48328;DHT22;34136;51.022;7.082;2024-02-26T22:56:49;7.70;99.90
48328;DHT22;34136;51.022;7.082;2024-02-26T22:59:35;7.80;99.90
48328;DHT22;34136;51.022;7.082;2024-02-26T23:02:21;7.80;99.90
48328;DHT22;34136;51.022;7.082;2024-02-26T23:05:07;7.80;99.90
48328;DHT22;34136;51.022;7.082;2024-02-26T23:07:54;7.70;99.90
48328;DHT22;34136;51.022;7.082;2024-02-26T23:10:46;7.70;99.90
48328;DHT22;34136;51.022;7.082;2024-02-26T23:13:32;7.80;99.90
48328;DHT22;34136;51.022;7.082;2024-02-26T23:16:43;7.80;99.90
48328;DHT22;34136;51.022;7.082;2024-02-26T23:19:29;7.80;99.90
48328;DHT22;34136;51.022;7.082;2024-02-26T23:22:18;7.80;99.90
48328;DHT22;34136;51.022;7.082;2024-02-26T23:25:06;7.80;99.90
48328;DHT22;34136;51.022;7.082;2024-02-26T23:27:52;7.80;99.90
48328;DHT22;34136;51.022;7.082;2024-02-26T23:30:38;7.80;99.90
48328;DHT22;34136;51.022;7.082;2024-02-26T23:33:24;7.80;99.90
48328;DHT22;34136;51.022;7.082;2024-02-26T23:36:38;7.80;99.90
48328;DHT22;34136;51.022;7.082;2024-02-26T23:39:30;7.70;99.90
48328;DHT22;34136;51.022;7.082;2024-02-26T23:42:16;7.80;99.90
48328;DHT22;34136;51.022;7.082;2024-02-26T23:45:05;7.70;99.90
48328;DHT22;34136;51.022;7.082;2024-02-26T23:47:51;7.70;99.90
48328;DHT22;34136;51.022;7.082;2024-02-26T23:50:37;7.70;99.90
48328;DHT22;34136;51.022;7.082;2024-02-26T23:53:26;7.70;99.90
48328;DHT22;34136;51.022;7.082;2024-02-26T23:56:12;7.70;99.90
48328;DHT22;34136;51.022;7.082;2024-02-26T23:58:58;7.70;99.90
